sensor_id;sensor_type;location;lat;lon;timestamp;pressure;altitude;pressure_sealevel;temperature;humidity
51195;BME280;37259;49.972;19.850;2024-03-02T00:00:18;98106.6666666667;;;6.49;91.34
51195;BME280;37259;49.972;19.850;2024-03-02T00:01:18;98103.3333333333;;;6.46;91.09
51195;BME280;37259;49.972;19.850;2024-03-02T00:02:18;98103.3333333333;;;6.48;91.11
51195;BME280;37259;49.972;19.850;2024-03-02T00:03:18;98101.6666666667;;;6.47;91.16
51195;BME280;37259;49.972;19.850;2024-03-02T00:04:18;98098.3333333333;;;6.47;91.26
51195;BME280;37259;49.972;19.850;2024-03-02T00:05:19;98100;;;6.45;90.99
51195;BME280;37259;49.972;19.850;2024-03-02T00:06:19;98103.3333333333;;;6.41;91.03
51195;BME280;37259;49.972;19.850;2024-03-02T00:07:18;98101.6666666667;;;6.4;90.95
51195;BME280;37259;49.972;19.850;2024-03-02T00:08:21;98106.6666666667;;;6.41;90.94
51195;BME280;37259;49.972;19.850;2024-03-02T00:09:18;98103.3333333333;;;6.42;91.06
51195;BME280;37259;49.972;19.850;2024-03-02T00:10:19;98105;;;6.42;90.93
51195;BME280;37259;49.972;19.850;2024-03-02T00:11:18;98108.3333333333;;;6.4;90.84
51195;BME280;37259;49.972;19.850;2024-03-02T00:12:18;98106.6666666667;;;6.38;90.93
51195;BME280;37259;49.972;19.850;2024-03-02T00:13:20;98108.3333333333;;;6.38;90.78
51195;BME280;37259;49.972;19.850;2024-03-02T00:14:18;98101.6666666667;;;6.35;90.76
51195;BME280;37259;49.972;19.850;2024-03-02T00:15:37;98105;;;6.36;90.8
51195;BME280;37259;49.972;19.850;2024-03-02T00:16:18;98103.3333333333;;;6.35;90.72
51195;BME280;37259;49.972;19.850;2024-03-02T00:17:25;98103.3333333333;;;6.34;90.65
51195;BME280;37259;49.972;19.850;2024-03-02T00:18:18;98103.3333333333;;;6.33;90.61
51195;BME280;37259;49.972;19.850;2024-03-02T00:19:18;98105;;;6.35;90.51
51195;BME280;37259;49.972;19.850;2024-03-02T00:20:18;98103.3333333333;;;6.3;90.4
51195;BME280;37259;49.972;19.850;2024-03-02T00:21:18;98103.3333333333;;;6.28;90.17
51195;BME280;37259;49.972;19.850;2024-03-02T00:22:18;98105;;;6.24;90.17
51195;BME280;37259;49.972;19.850;2024-03-02T00:23:18;98103.3333333333;;;6.24;90.31
51195;BME280;37259;49.972;19.850;2024-03-02T00:24:19;98106.6666666667;;;6.25;90.46
51195;BME280;37259;49.972;19.850;2024-03-02T00:25:18;98106.6666666667;;;6.26;90.41
51195;BME280;37259;49.972;19.850;2024-03-02T00:26:18;98106.6666666667;;;6.22;90.4
51195;BME280;37259;49.972;19.850;2024-03-02T00:27:18;98105;;;6.22;90.49
51195;BME280;37259;49.972;19.850;2024-03-02T00:28:19;98103.3333333333;;;6.2;90.32
51195;BME280;37259;49.972;19.850;2024-03-02T00:29:18;98103.3333333333;;;6.2;90.35
51195;BME280;37259;49.972;19.850;2024-03-02T00:30:32;98105;;;6.19;90.42
51195;BME280;37259;49.972;19.850;2024-03-02T00:31:19;98106.6666666667;;;6.17;90.42
51195;BME280;37259;49.972;19.850;2024-03-02T00:32:18;98103.3333333333;;;6.16;90.32
51195;BME280;37259;49.972;19.850;2024-03-02T00:33:18;98108.3333333333;;;6.18;90.29
51195;BME280;37259;49.972;19.850;2024-03-02T00:34:18;98103.3333333333;;;6.14;90.15
51195;BME280;37259;49.972;19.850;2024-03-02T00:35:22;98101.6666666667;;;6.12;90.09
51195;BME280;37259;49.972;19.850;2024-03-02T00:36:21;98103.3333333333;;;6.1;90.15
51195;BME280;37259;49.972;19.850;2024-03-02T00:37:18;98101.6666666667;;;6.1;90.16
51195;BME280;37259;49.972;19.850;2024-03-02T00:38:18;98100;;;6.09;90.17
51195;BME280;37259;49.972;19.850;2024-03-02T00:39:18;98096.6666666667;;;6.09;90.12
51195;BME280;37259;49.972;19.850;2024-03-02T00:40:18;98100;;;6.03;89.42
51195;BME280;37259;49.972;19.850;2024-03-02T00:41:19;98096.6666666667;;;6.03;89.53
51195;BME280;37259;49.972;19.850;2024-03-02T00:42:18;98098.3333333333;;;5.99;89.63
51195;BME280;37259;49.972;19.850;2024-03-02T00:43:30;98096.6666666667;;;6;89.83
51195;BME280;37259;49.972;19.850;2024-03-02T00:44:18;98096.6666666667;;;5.93;89.73
51195;BME280;37259;49.972;19.850;2024-03-02T00:45:18;98096.6666666667;;;5.92;89.77
51195;BME280;37259;49.972;19.850;2024-03-02T00:46:18;98096.6666666667;;;5.88;89.72
51195;BME280;37259;49.972;19.850;2024-03-02T00:47:18;98098.3333333333;;;5.86;89.95
51195;BME280;37259;49.972;19.850;2024-03-02T00:48:18;98095;;;5.83;90.56
51195;BME280;37259;49.972;19.850;2024-03-02T00:49:18;98096.6666666667;;;5.85;90.58
51195;BME280;37259;49.972;19.850;2024-03-02T00:50:18;98093.3333333333;;;5.85;90.55
51195;BME280;37259;49.972;19.850;2024-03-02T00:51:18;98096.6666666667;;;5.84;90.73
51195;BME280;37259;49.972;19.850;2024-03-02T00:52:18;98095;;;5.87;90.82
51195;BME280;37259;49.972;19.850;2024-03-02T00:53:18;98096.6666666667;;;5.87;90.85
51195;BME280;37259;49.972;19.850;2024-03-02T00:54:19;98095;;;5.88;90.82
51195;BME280;37259;49.972;19.850;2024-03-02T00:55:18;98093.3333333333;;;5.86;90.72
51195;BME280;37259;49.972;19.850;2024-03-02T00:56:18;98093.3333333333;;;5.87;90.71
51195;BME280;37259;49.972;19.850;2024-03-02T00:57:18;98091.6666666667;;;5.88;90.7
51195;BME280;37259;49.972;19.850;2024-03-02T00:58:18;98093.3333333333;;;5.9;90.68
51195;BME280;37259;49.972;19.850;2024-03-02T00:59:18;98090;;;5.89;90.63
51195;BME280;37259;49.972;19.850;2024-03-02T01:00:18;98085;;;5.86;90.63
51195;BME280;37259;49.972;19.850;2024-03-02T01:01:18;98086.6666666667;;;5.85;90.63
51195;BME280;37259;49.972;19.850;2024-03-02T01:02:18;98085;;;5.86;90.67
51195;BME280;37259;49.972;19.850;2024-03-02T01:03:18;98088.3333333333;;;5.87;90.69
51195;BME280;37259;49.972;19.850;2024-03-02T01:04:18;98090;;;5.84;90.45
51195;BME280;37259;49.972;19.850;2024-03-02T01:05:18;98086.6666666667;;;5.84;90.45
51195;BME280;37259;49.972;19.850;2024-03-02T01:06:18;98085;;;5.82;90.52
51195;BME280;37259;49.972;19.850;2024-03-02T01:07:18;98083.3333333333;;;5.82;90.68
51195;BME280;37259;49.972;19.850;2024-03-02T01:08:18;98081.6666666667;;;5.82;90.78
51195;BME280;37259;49.972;19.850;2024-03-02T01:09:18;98080;;;5.8;90.69
51195;BME280;37259;49.972;19.850;2024-03-02T01:10:18;98078.3333333333;;;5.8;90.99
51195;BME280;37259;49.972;19.850;2024-03-02T01:11:18;98073.3333333333;;;5.82;90.98
51195;BME280;37259;49.972;19.850;2024-03-02T01:12:18;98075;;;5.85;91.06
51195;BME280;37259;49.972;19.850;2024-03-02T01:13:18;98078.3333333333;;;5.85;91.07
51195;BME280;37259;49.972;19.850;2024-03-02T01:14:18;98078.3333333333;;;5.84;91.31
51195;BME280;37259;49.972;19.850;2024-03-02T01:15:18;98080;;;5.85;91.54
51195;BME280;37259;49.972;19.850;2024-03-02T01:16:18;98078.3333333333;;;5.85;91.76
51195;BME280;37259;49.972;19.850;2024-03-02T01:17:18;98075;;;5.86;91.89
51195;BME280;37259;49.972;19.850;2024-03-02T01:18:18;98073.3333333333;;;5.83;92.27
51195;BME280;37259;49.972;19.850;2024-03-02T01:19:18;98070;;;5.85;92.35
51195;BME280;37259;49.972;19.850;2024-03-02T01:20:18;98070;;;5.85;92.82
51195;BME280;37259;49.972;19.850;2024-03-02T01:21:18;98066.6666666667;;;5.87;92.66
51195;BME280;37259;49.972;19.850;2024-03-02T01:22:18;98065;;;5.86;92.75
51195;BME280;37259;49.972;19.850;2024-03-02T01:23:18;98065;;;5.85;93.02
51195;BME280;37259;49.972;19.850;2024-03-02T01:24:18;98063.3333333333;;;5.85;93.14
51195;BME280;37259;49.972;19.850;2024-03-02T01:25:18;98061.6666666667;;;5.9;93.01
51195;BME280;37259;49.972;19.850;2024-03-02T01:26:18;98065;;;5.93;92.92
51195;BME280;37259;49.972;19.850;2024-03-02T01:27:18;98063.3333333333;;;5.92;92.97
51195;BME280;37259;49.972;19.850;2024-03-02T01:28:18;98065;;;5.93;92.96
51195;BME280;37259;49.972;19.850;2024-03-02T01:29:18;98063.3333333333;;;5.98;92.87
51195;BME280;37259;49.972;19.850;2024-03-02T01:30:18;98066.6666666667;;;6.01;92.76
51195;BME280;37259;49.972;19.850;2024-03-02T01:31:18;98065;;;5.99;92.85
51195;BME280;37259;49.972;19.850;2024-03-02T01:32:18;98073.3333333333;;;6.01;92.85
51195;BME280;37259;49.972;19.850;2024-03-02T01:33:18;98068.3333333333;;;6.06;92.81
51195;BME280;37259;49.972;19.850;2024-03-02T01:34:18;98071.6666666667;;;6.08;92.75
51195;BME280;37259;49.972;19.850;2024-03-02T01:35:18;98073.3333333333;;;6.12;92.68
51195;BME280;37259;49.972;19.850;2024-03-02T01:36:18;98070;;;6.13;92.37
51195;BME280;37259;49.972;19.850;2024-03-02T01:37:18;98071.6666666667;;;6.12;92.31
51195;BME280;37259;49.972;19.850;2024-03-02T01:38:18;98073.3333333333;;;6.13;92.34
51195;BME280;37259;49.972;19.850;2024-03-02T01:39:18;98071.6666666667;;;6.12;92.24
51195;BME280;37259;49.972;19.850;2024-03-02T01:40:18;98075;;;6.1;92.17
51195;BME280;37259;49.972;19.850;2024-03-02T01:41:18;98070;;;6.06;92.25
51195;BME280;37259;49.972;19.850;2024-03-02T01:42:19;98070;;;6.12;92.23
51195;BME280;37259;49.972;19.850;2024-03-02T01:43:18;98063.3333333333;;;6.14;92.19
51195;BME280;37259;49.972;19.850;2024-03-02T01:44:18;98063.3333333333;;;6.11;92.17
51195;BME280;37259;49.972;19.850;2024-03-02T01:45:18;98060;;;6.17;92.16
51195;BME280;37259;49.972;19.850;2024-03-02T01:46:18;98063.3333333333;;;6.16;91.98
51195;BME280;37259;49.972;19.850;2024-03-02T01:47:18;98058.3333333333;;;6.1;91.39
51195;BME280;37259;49.972;19.850;2024-03-02T01:48:18;98053.3333333333;;;6.08;91.34
51195;BME280;37259;49.972;19.850;2024-03-02T01:49:18;98053.3333333333;;;6.06;91.42
51195;BME280;37259;49.972;19.850;2024-03-02T01:50:24;98053.3333333333;;;6.08;91.57
51195;BME280;37259;49.972;19.850;2024-03-02T01:51:18;98055;;;6.02;91.29
51195;BME280;37259;49.972;19.850;2024-03-02T01:52:18;98051.6666666667;;;6.06;91.32
51195;BME280;37259;49.972;19.850;2024-03-02T01:53:18;98053.3333333333;;;6.04;91.37
51195;BME280;37259;49.972;19.850;2024-03-02T01:54:18;98053.3333333333;;;6.04;91.38
51195;BME280;37259;49.972;19.850;2024-03-02T01:55:18;98053.3333333333;;;6.03;91.43
51195;BME280;37259;49.972;19.850;2024-03-02T01:56:18;98053.3333333333;;;6.03;91.33
51195;BME280;37259;49.972;19.850;2024-03-02T01:57:18;98050;;;6.03;91.37
51195;BME280;37259;49.972;19.850;2024-03-02T01:58:18;98050;;;6.04;91.4
51195;BME280;37259;49.972;19.850;2024-03-02T01:59:18;98051.6666666667;;;6.08;91.39
51195;BME280;37259;49.972;19.850;2024-03-02T02:00:18;98053.3333333333;;;6.06;91.35
51195;BME280;37259;49.972;19.850;2024-03-02T02:01:18;98050;;;6.02;91.17
51195;BME280;37259;49.972;19.850;2024-03-02T02:02:18;98051.6666666667;;;6.04;91.33
51195;BME280;37259;49.972;19.850;2024-03-02T02:03:18;98050;;;6.01;91.2
51195;BME280;37259;49.972;19.850;2024-03-02T02:04:18;98051.6666666667;;;6.01;91.23
51195;BME280;37259;49.972;19.850;2024-03-02T02:05:18;98048.3333333333;;;6.03;91.33
51195;BME280;37259;49.972;19.850;2024-03-02T02:06:18;98051.6666666667;;;6.01;91.25
51195;BME280;37259;49.972;19.850;2024-03-02T02:07:18;98051.6666666667;;;6.01;91.23
51195;BME280;37259;49.972;19.850;2024-03-02T02:08:18;98053.3333333333;;;5.99;91
51195;BME280;37259;49.972;19.850;2024-03-02T02:09:18;98055;;;5.98;90.97
51195;BME280;37259;49.972;19.850;2024-03-02T02:10:18;98056.6666666667;;;5.97;90.86
51195;BME280;37259;49.972;19.850;2024-03-02T02:11:18;98051.6666666667;;;5.97;90.89
51195;BME280;37259;49.972;19.850;2024-03-02T02:12:18;98055;;;5.97;90.9
51195;BME280;37259;49.972;19.850;2024-03-02T02:13:18;98055;;;5.98;90.86
51195;BME280;37259;49.972;19.850;2024-03-02T02:14:18;98053.3333333333;;;5.97;90.88
51195;BME280;37259;49.972;19.850;2024-03-02T02:15:21;98055;;;5.94;90.77
51195;BME280;37259;49.972;19.850;2024-03-02T02:16:18;98051.6666666667;;;5.98;90.81
51195;BME280;37259;49.972;19.850;2024-03-02T02:17:18;98055;;;5.97;90.81
51195;BME280;37259;49.972;19.850;2024-03-02T02:18:18;98051.6666666667;;;5.96;90.73
51195;BME280;37259;49.972;19.850;2024-03-02T02:19:18;98051.6666666667;;;5.94;90.67
51195;BME280;37259;49.972;19.850;2024-03-02T02:20:18;98048.3333333333;;;5.93;90.65
51195;BME280;37259;49.972;19.850;2024-03-02T02:21:21;98048.3333333333;;;5.93;90.54
51195;BME280;37259;49.972;19.850;2024-03-02T02:22:18;98050;;;5.9;90.44
51195;BME280;37259;49.972;19.850;2024-03-02T02:23:18;98048.3333333333;;;5.92;90.4
51195;BME280;37259;49.972;19.850;2024-03-02T02:24:18;98051.6666666667;;;5.86;90.35
51195;BME280;37259;49.972;19.850;2024-03-02T02:25:18;98048.3333333333;;;5.9;90.33
51195;BME280;37259;49.972;19.850;2024-03-02T02:26:18;98050;;;5.87;90.25
51195;BME280;37259;49.972;19.850;2024-03-02T02:27:18;98050;;;5.84;90.06
51195;BME280;37259;49.972;19.850;2024-03-02T02:28:18;98051.6666666667;;;5.81;90.05
51195;BME280;37259;49.972;19.850;2024-03-02T02:29:18;98051.6666666667;;;5.77;90.03
51195;BME280;37259;49.972;19.850;2024-03-02T02:30:18;98053.3333333333;;;5.77;89.87
51195;BME280;37259;49.972;19.850;2024-03-02T02:31:18;98053.3333333333;;;5.73;90
51195;BME280;37259;49.972;19.850;2024-03-02T02:32:18;98050;;;5.74;90.04
51195;BME280;37259;49.972;19.850;2024-03-02T02:33:18;98050;;;5.71;90.11
51195;BME280;37259;49.972;19.850;2024-03-02T02:34:18;98051.6666666667;;;5.7;90.16
51195;BME280;37259;49.972;19.850;2024-03-02T02:35:18;98051.6666666667;;;5.66;90.24
51195;BME280;37259;49.972;19.850;2024-03-02T02:36:18;98048.3333333333;;;5.6;90.39
51195;BME280;37259;49.972;19.850;2024-03-02T02:37:18;98048.3333333333;;;5.62;90.53
51195;BME280;37259;49.972;19.850;2024-03-02T02:38:18;98050;;;5.61;90.81
51195;BME280;37259;49.972;19.850;2024-03-02T02:39:18;98046.6666666667;;;5.63;90.81
51195;BME280;37259;49.972;19.850;2024-03-02T02:40:20;98046.6666666667;;;5.6;90.97
51195;BME280;37259;49.972;19.850;2024-03-02T02:41:18;98048.3333333333;;;5.57;91.42
51195;BME280;37259;49.972;19.850;2024-03-02T02:42:18;98048.3333333333;;;5.6;91.47
51195;BME280;37259;49.972;19.850;2024-03-02T02:43:18;98051.6666666667;;;5.58;91.43
51195;BME280;37259;49.972;19.850;2024-03-02T02:44:18;98051.6666666667;;;5.57;91.53
51195;BME280;37259;49.972;19.850;2024-03-02T02:45:18;98051.6666666667;;;5.54;91.73
51195;BME280;37259;49.972;19.850;2024-03-02T02:46:18;98051.6666666667;;;5.56;91.67
51195;BME280;37259;49.972;19.850;2024-03-02T02:47:18;98050;;;5.56;91.72
51195;BME280;37259;49.972;19.850;2024-03-02T02:48:18;98048.3333333333;;;5.57;91.63
51195;BME280;37259;49.972;19.850;2024-03-02T02:49:18;98048.3333333333;;;5.53;91.95
51195;BME280;37259;49.972;19.850;2024-03-02T02:50:18;98046.6666666667;;;5.51;91.99
51195;BME280;37259;49.972;19.850;2024-03-02T02:51:18;98048.3333333333;;;5.54;91.91
51195;BME280;37259;49.972;19.850;2024-03-02T02:52:18;98045;;;5.52;91.92
51195;BME280;37259;49.972;19.850;2024-03-02T02:53:18;98046.6666666667;;;5.53;92.07
51195;BME280;37259;49.972;19.850;2024-03-02T02:54:18;98041.6666666667;;;5.5;92.11
51195;BME280;37259;49.972;19.850;2024-03-02T02:55:18;98041.6666666667;;;5.52;92.09
51195;BME280;37259;49.972;19.850;2024-03-02T02:56:18;98041.6666666667;;;5.52;92.04
51195;BME280;37259;49.972;19.850;2024-03-02T02:57:18;98041.6666666667;;;5.52;92.1
51195;BME280;37259;49.972;19.850;2024-03-02T02:58:18;98040;;;5.54;92.08
51195;BME280;37259;49.972;19.850;2024-03-02T02:59:18;98043.3333333333;;;5.54;92.01
51195;BME280;37259;49.972;19.850;2024-03-02T03:00:18;98041.6666666667;;;5.56;91.93
51195;BME280;37259;49.972;19.850;2024-03-02T03:01:18;98040;;;5.56;91.85
51195;BME280;37259;49.972;19.850;2024-03-02T03:02:18;98041.6666666667;;;5.55;91.78
51195;BME280;37259;49.972;19.850;2024-03-02T03:03:18;98043.3333333333;;;5.54;91.8
51195;BME280;37259;49.972;19.850;2024-03-02T03:04:18;98045;;;5.54;91.9
51195;BME280;37259;49.972;19.850;2024-03-02T03:05:18;98045;;;5.53;91.83
51195;BME280;37259;49.972;19.850;2024-03-02T03:06:18;98041.6666666667;;;5.53;91.84
51195;BME280;37259;49.972;19.850;2024-03-02T03:07:18;98040;;;5.57;91.84
51195;BME280;37259;49.972;19.850;2024-03-02T03:08:18;98041.6666666667;;;5.54;91.85
51195;BME280;37259;49.972;19.850;2024-03-02T03:09:18;98038.3333333333;;;5.52;91.91
51195;BME280;37259;49.972;19.850;2024-03-02T03:10:18;98041.6666666667;;;5.51;91.81
51195;BME280;37259;49.972;19.850;2024-03-02T03:11:18;98041.6666666667;;;5.53;91.92
51195;BME280;37259;49.972;19.850;2024-03-02T03:12:18;98041.6666666667;;;5.5;92.04
51195;BME280;37259;49.972;19.850;2024-03-02T03:13:18;98040;;;5.51;92.07
51195;BME280;37259;49.972;19.850;2024-03-02T03:14:18;98041.6666666667;;;5.55;92.04
51195;BME280;37259;49.972;19.850;2024-03-02T03:15:18;98040;;;5.55;92.04
51195;BME280;37259;49.972;19.850;2024-03-02T03:16:18;98041.6666666667;;;5.53;91.98
51195;BME280;37259;49.972;19.850;2024-03-02T03:17:18;98041.6666666667;;;5.52;91.95
51195;BME280;37259;49.972;19.850;2024-03-02T03:18:18;98041.6666666667;;;5.49;92.17
51195;BME280;37259;49.972;19.850;2024-03-02T03:19:18;98038.3333333333;;;5.49;92.08
51195;BME280;37259;49.972;19.850;2024-03-02T03:20:18;98041.6666666667;;;5.5;92.09
51195;BME280;37259;49.972;19.850;2024-03-02T03:21:18;98043.3333333333;;;5.51;92.02
51195;BME280;37259;49.972;19.850;2024-03-02T03:22:18;98043.3333333333;;;5.54;92
51195;BME280;37259;49.972;19.850;2024-03-02T03:23:18;98045;;;5.51;92.05
51195;BME280;37259;49.972;19.850;2024-03-02T03:24:18;98043.3333333333;;;5.53;92.15
51195;BME280;37259;49.972;19.850;2024-03-02T03:25:18;98041.6666666667;;;5.55;92.19
51195;BME280;37259;49.972;19.850;2024-03-02T03:26:18;98043.3333333333;;;5.55;92.15
51195;BME280;37259;49.972;19.850;2024-03-02T03:27:18;98040;;;5.54;92.16
51195;BME280;37259;49.972;19.850;2024-03-02T03:28:18;98040;;;5.54;92.17
51195;BME280;37259;49.972;19.850;2024-03-02T03:29:18;98036.6666666667;;;5.52;92.22
51195;BME280;37259;49.972;19.850;2024-03-02T03:30:18;98040;;;5.54;92.27
51195;BME280;37259;49.972;19.850;2024-03-02T03:31:18;98038.3333333333;;;5.49;92.34
51195;BME280;37259;49.972;19.850;2024-03-02T03:32:18;98035;;;5.42;92.77
51195;BME280;37259;49.972;19.850;2024-03-02T03:33:18;98033.3333333333;;;5.39;92.76
51195;BME280;37259;49.972;19.850;2024-03-02T03:34:18;98033.3333333333;;;5.36;92.91
51195;BME280;37259;49.972;19.850;2024-03-02T03:35:18;98030;;;5.37;92.83
51195;BME280;37259;49.972;19.850;2024-03-02T03:36:18;98033.3333333333;;;5.39;92.73
51195;BME280;37259;49.972;19.850;2024-03-02T03:37:18;98030;;;5.38;92.78
51195;BME280;37259;49.972;19.850;2024-03-02T03:38:18;98028.3333333333;;;5.41;92.75
51195;BME280;37259;49.972;19.850;2024-03-02T03:39:18;98028.3333333333;;;5.42;92.6
51195;BME280;37259;49.972;19.850;2024-03-02T03:40:18;98028.3333333333;;;5.43;92.58
51195;BME280;37259;49.972;19.850;2024-03-02T03:41:18;98025;;;5.43;92.49
51195;BME280;37259;49.972;19.850;2024-03-02T03:42:18;98021.6666666667;;;5.43;92.49
51195;BME280;37259;49.972;19.850;2024-03-02T03:43:18;98020;;;5.41;92.45
51195;BME280;37259;49.972;19.850;2024-03-02T03:44:18;98021.6666666667;;;5.42;92.47
51195;BME280;37259;49.972;19.850;2024-03-02T03:45:18;98023.3333333333;;;5.41;92.39
51195;BME280;37259;49.972;19.850;2024-03-02T03:46:18;98021.6666666667;;;5.38;92.34
51195;BME280;37259;49.972;19.850;2024-03-02T03:47:18;98021.6666666667;;;5.35;92.4
51195;BME280;37259;49.972;19.850;2024-03-02T03:48:18;98021.6666666667;;;5.37;92.41
51195;BME280;37259;49.972;19.850;2024-03-02T03:49:18;98025;;;5.4;92.36
51195;BME280;37259;49.972;19.850;2024-03-02T03:50:18;98026.6666666667;;;5.35;92.46
51195;BME280;37259;49.972;19.850;2024-03-02T03:51:18;98031.6666666667;;;5.36;92.43
51195;BME280;37259;49.972;19.850;2024-03-02T03:52:18;98028.3333333333;;;5.38;92.46
51195;BME280;37259;49.972;19.850;2024-03-02T03:53:18;98031.6666666667;;;5.41;92.41
51195;BME280;37259;49.972;19.850;2024-03-02T03:54:18;98030;;;5.33;92.48
51195;BME280;37259;49.972;19.850;2024-03-02T03:55:18;98030;;;5.35;92.5
51195;BME280;37259;49.972;19.850;2024-03-02T03:56:18;98026.6666666667;;;5.34;92.54
51195;BME280;37259;49.972;19.850;2024-03-02T03:57:18;98025;;;5.35;92.51
51195;BME280;37259;49.972;19.850;2024-03-02T03:58:18;98021.6666666667;;;5.36;92.52
51195;BME280;37259;49.972;19.850;2024-03-02T03:59:18;98025;;;5.41;92.39
51195;BME280;37259;49.972;19.850;2024-03-02T04:00:18;98023.3333333333;;;5.42;92.45
51195;BME280;37259;49.972;19.850;2024-03-02T04:01:18;98025;;;5.4;92.33
51195;BME280;37259;49.972;19.850;2024-03-02T04:02:18;98023.3333333333;;;5.42;92.33
51195;BME280;37259;49.972;19.850;2024-03-02T04:03:18;98021.6666666667;;;5.43;92.33
51195;BME280;37259;49.972;19.850;2024-03-02T04:04:18;98018.3333333333;;;5.44;92.26
51195;BME280;37259;49.972;19.850;2024-03-02T04:05:18;98020;;;5.43;92.11
51195;BME280;37259;49.972;19.850;2024-03-02T04:06:18;98023.3333333333;;;5.43;92.08
51195;BME280;37259;49.972;19.850;2024-03-02T04:07:18;98025;;;5.4;92.09
51195;BME280;37259;49.972;19.850;2024-03-02T04:08:18;98026.6666666667;;;5.42;92.18
51195;BME280;37259;49.972;19.850;2024-03-02T04:09:18;98026.6666666667;;;5.38;92.18
51195;BME280;37259;49.972;19.850;2024-03-02T04:10:18;98028.3333333333;;;5.38;92.13
51195;BME280;37259;49.972;19.850;2024-03-02T04:11:18;98030;;;5.42;92.23
51195;BME280;37259;49.972;19.850;2024-03-02T04:12:18;98031.6666666667;;;5.38;92.23
51195;BME280;37259;49.972;19.850;2024-03-02T04:13:18;98033.3333333333;;;5.41;92.28
51195;BME280;37259;49.972;19.850;2024-03-02T04:14:18;98033.3333333333;;;5.38;92.29
51195;BME280;37259;49.972;19.850;2024-03-02T04:15:18;98033.3333333333;;;5.38;92.2
51195;BME280;37259;49.972;19.850;2024-03-02T04:16:18;98030;;;5.34;92.4
51195;BME280;37259;49.972;19.850;2024-03-02T04:17:18;98031.6666666667;;;5.31;92.47
51195;BME280;37259;49.972;19.850;2024-03-02T04:18:18;98031.6666666667;;;5.26;92.93
51195;BME280;37259;49.972;19.850;2024-03-02T04:19:18;98031.6666666667;;;5.28;92.97
51195;BME280;37259;49.972;19.850;2024-03-02T04:20:18;98028.3333333333;;;5.28;92.82
51195;BME280;37259;49.972;19.850;2024-03-02T04:21:18;98031.6666666667;;;5.26;93.04
51195;BME280;37259;49.972;19.850;2024-03-02T04:22:18;98033.3333333333;;;5.25;93.15
51195;BME280;37259;49.972;19.850;2024-03-02T04:23:18;98033.3333333333;;;5.29;93.05
51195;BME280;37259;49.972;19.850;2024-03-02T04:24:18;98033.3333333333;;;5.32;92.95
51195;BME280;37259;49.972;19.850;2024-03-02T04:25:18;98031.6666666667;;;5.32;92.82
51195;BME280;37259;49.972;19.850;2024-03-02T04:26:18;98030;;;5.36;92.83
51195;BME280;37259;49.972;19.850;2024-03-02T04:27:18;98031.6666666667;;;5.39;92.71
51195;BME280;37259;49.972;19.850;2024-03-02T04:28:18;98035;;;5.38;92.6
51195;BME280;37259;49.972;19.850;2024-03-02T04:29:18;98035;;;5.35;92.43
51195;BME280;37259;49.972;19.850;2024-03-02T04:30:18;98035;;;5.38;92.46
51195;BME280;37259;49.972;19.850;2024-03-02T04:31:18;98031.6666666667;;;5.38;92.49
51195;BME280;37259;49.972;19.850;2024-03-02T04:32:18;98031.6666666667;;;5.39;92.39
51195;BME280;37259;49.972;19.850;2024-03-02T04:33:18;98031.6666666667;;;5.41;92.33
51195;BME280;37259;49.972;19.850;2024-03-02T04:34:18;98033.3333333333;;;5.37;92.31
51195;BME280;37259;49.972;19.850;2024-03-02T04:35:18;98035;;;5.39;92.25
51195;BME280;37259;49.972;19.850;2024-03-02T04:36:18;98036.6666666667;;;5.37;92.19
51195;BME280;37259;49.972;19.850;2024-03-02T04:37:18;98036.6666666667;;;5.38;92.17
51195;BME280;37259;49.972;19.850;2024-03-02T04:38:18;98035;;;5.39;92.08
51195;BME280;37259;49.972;19.850;2024-03-02T04:39:18;98038.3333333333;;;5.36;91.98
51195;BME280;37259;49.972;19.850;2024-03-02T04:40:18;98038.3333333333;;;5.39;92
51195;BME280;37259;49.972;19.850;2024-03-02T04:41:18;98040;;;5.37;91.95
51195;BME280;37259;49.972;19.850;2024-03-02T04:42:18;98041.6666666667;;;5.37;91.92
51195;BME280;37259;49.972;19.850;2024-03-02T04:43:18;98043.3333333333;;;5.38;91.86
51195;BME280;37259;49.972;19.850;2024-03-02T04:44:18;98043.3333333333;;;5.31;91.45
51195;BME280;37259;49.972;19.850;2024-03-02T04:45:18;98045;;;5.31;91.57
51195;BME280;37259;49.972;19.850;2024-03-02T04:46:18;98041.6666666667;;;5.31;91.59
51195;BME280;37259;49.972;19.850;2024-03-02T04:47:18;98038.3333333333;;;5.29;91.59
51195;BME280;37259;49.972;19.850;2024-03-02T04:48:18;98041.6666666667;;;5.3;91.53
51195;BME280;37259;49.972;19.850;2024-03-02T04:49:18;98040;;;5.29;91.57
51195;BME280;37259;49.972;19.850;2024-03-02T04:50:18;98038.3333333333;;;5.27;91.6
51195;BME280;37259;49.972;19.850;2024-03-02T04:51:18;98036.6666666667;;;5.3;91.63
51195;BME280;37259;49.972;19.850;2024-03-02T04:52:18;98038.3333333333;;;5.27;91.62
51195;BME280;37259;49.972;19.850;2024-03-02T04:53:18;98036.6666666667;;;5.27;91.56
51195;BME280;37259;49.972;19.850;2024-03-02T04:54:18;98033.3333333333;;;5.24;91.51
51195;BME280;37259;49.972;19.850;2024-03-02T04:55:18;98033.3333333333;;;5.27;91.41
51195;BME280;37259;49.972;19.850;2024-03-02T04:56:18;98030;;;5.27;91.39
51195;BME280;37259;49.972;19.850;2024-03-02T04:57:18;98033.3333333333;;;5.21;91.13
51195;BME280;37259;49.972;19.850;2024-03-02T04:58:18;98035;;;5.21;91.3
51195;BME280;37259;49.972;19.850;2024-03-02T04:59:18;98035;;;5.2;91.33